createdAt,value
2022-11-10T00:00:27.967Z,80.9
2022-11-10T00:01:27.981Z,80.9
2022-11-10T00:02:27.996Z,81.0
2022-11-10T00:03:27.998Z,81.0
2022-11-10T00:04:28.132Z,81.0
2022-11-10T00:05:28.010Z,81.1
2022-11-10T00:06:28.044Z,81.1
2022-11-10T00:07:28.050Z,81.1
2022-11-10T00:08:28.456Z,81.2
2022-11-10T00:09:28.061Z,81.1
2022-11-10T00:10:28.076Z,81.2
2022-11-10T00:11:28.136Z,81.4
2022-11-10T00:12:28.108Z,81.6
2022-11-10T00:13:28.127Z,81.8
2022-11-10T00:14:28.144Z,81.9
2022-11-10T00:15:28.158Z,82.0
2022-11-10T00:16:28.175Z,82.1
2022-11-10T00:17:28.187Z,82.2
2022-11-10T00:18:28.198Z,82.2
2022-11-10T00:19:28.215Z,82.2
2022-11-10T00:20:28.226Z,82.0
2022-11-10T00:21:28.253Z,82.0
2022-11-10T00:22:28.251Z,81.9
2022-11-10T00:23:28.246Z,81.8
2022-11-10T00:24:28.288Z,82.0
2022-11-10T00:25:28.299Z,82.0
2022-11-10T00:26:28.289Z,82.2
2022-11-10T00:27:28.312Z,82.2
2022-11-10T00:28:28.317Z,82.3
2022-11-10T00:29:28.365Z,82.4
2022-11-10T00:30:28.365Z,82.3
2022-11-10T00:31:28.473Z,82.4
2022-11-10T00:32:28.373Z,82.5
2022-11-10T00:33:28.404Z,82.7
2022-11-10T00:34:28.408Z,82.6
2022-11-10T00:35:28.415Z,82.8
2022-11-10T00:36:28.430Z,83.0
2022-11-10T00:37:28.454Z,83.1
2022-11-10T00:38:28.491Z,83.5
2022-11-10T00:39:28.485Z,83.6
2022-11-10T00:40:28.499Z,83.9
2022-11-10T00:41:28.528Z,84.0
2022-11-10T00:42:28.531Z,84.2
2022-11-10T00:43:30.003Z,84.3
2022-11-10T00:44:28.570Z,84.2
2022-11-10T00:45:28.573Z,84.3
2022-11-10T00:46:28.594Z,84.3
2022-11-10T00:47:28.607Z,84.3
2022-11-10T00:48:28.618Z,84.4
2022-11-10T00:49:28.660Z,84.6
2022-11-10T00:50:28.665Z,85.0
2022-11-10T00:51:28.690Z,85.2
2022-11-10T00:52:28.682Z,85.3
2022-11-10T00:53:28.684Z,85.6
2022-11-10T00:54:28.705Z,85.6
2022-11-10T00:55:28.712Z,85.5
2022-11-10T00:56:28.735Z,85.6
2022-11-10T00:57:28.765Z,85.6
2022-11-10T00:58:28.757Z,85.4
2022-11-10T00:59:28.766Z,85.4
2022-11-10T01:00:28.797Z,85.4
2022-11-10T01:01:28.997Z,85.4
2022-11-10T01:02:28.802Z,85.6
2022-11-10T01:03:28.813Z,85.7
2022-11-10T01:04:28.862Z,85.5
2022-11-10T01:05:28.868Z,85.8
2022-11-10T01:06:29.156Z,85.9
2022-11-10T01:07:28.898Z,86.0
2022-11-10T01:08:28.873Z,85.9
2022-11-10T01:09:28.896Z,86.2
2022-11-10T01:10:28.922Z,86.5
2022-11-10T01:11:28.910Z,86.7
2022-11-10T01:12:28.936Z,86.6
2022-11-10T01:13:28.973Z,86.7
2022-11-10T01:14:28.961Z,86.8
2022-11-10T01:15:28.955Z,86.9
2022-11-10T01:16:28.956Z,86.9
2022-11-10T01:17:28.980Z,86.9
2022-11-10T01:18:29.019Z,86.9
2022-11-10T01:19:29.024Z,87.1
2022-11-10T01:20:29.035Z,87.0
2022-11-10T01:21:29.031Z,87.1
2022-11-10T01:22:29.049Z,87.1
2022-11-10T01:23:29.071Z,87.2
2022-11-10T01:24:29.066Z,87.1
2022-11-10T01:25:29.077Z,87.1
2022-11-10T01:26:29.104Z,87.1
2022-11-10T01:27:29.115Z,87.4
2022-11-10T01:28:30.145Z,87.4
2022-11-10T01:29:29.132Z,87.6
2022-11-10T01:30:29.171Z,87.8
2022-11-10T01:31:29.150Z,87.8
2022-11-10T01:32:29.162Z,87.5
2022-11-10T01:33:29.166Z,87.5
2022-11-10T01:34:29.180Z,87.5
2022-11-10T01:35:29.185Z,87.4
2022-11-10T01:36:29.201Z,87.4
2022-11-10T01:37:29.236Z,87.5
2022-11-10T01:38:29.231Z,87.5
2022-11-10T01:39:29.246Z,87.7
2022-11-10T01:40:29.449Z,88.0
2022-11-10T01:41:29.278Z,87.9
2022-11-10T01:42:29.292Z,88.0
2022-11-10T01:43:29.301Z,88.1
2022-11-10T01:44:29.313Z,88.0
2022-11-10T01:45:29.313Z,88.0
2022-11-10T01:46:29.327Z,88.1
2022-11-10T01:47:29.346Z,88.1
2022-11-10T02:05:29.970Z,89.2
2022-11-10T02:06:29.765Z,89.1
2022-11-10T02:07:29.594Z,89.1
2022-11-10T02:08:29.642Z,89.1
2022-11-10T02:09:29.666Z,89.3
2022-11-10T02:10:29.677Z,89.2
2022-11-10T02:11:29.639Z,89.1
2022-11-10T02:12:29.674Z,89.2
2022-11-10T02:13:29.643Z,89.4
2022-11-10T02:14:29.666Z,89.5
2022-11-10T02:15:29.678Z,89.3
2022-11-10T02:16:29.694Z,89.2
2022-11-10T02:17:29.730Z,89.3
2022-11-10T02:18:29.718Z,89.3
2022-11-10T02:19:29.714Z,89.4
2022-11-10T02:20:29.721Z,89.6
2022-11-10T02:21:29.729Z,89.5
2022-11-10T02:22:29.749Z,89.7
2022-11-10T02:23:29.744Z,89.6
2022-11-10T02:24:29.752Z,89.6
2022-11-10T02:25:29.749Z,89.7
2022-11-10T02:26:29.769Z,89.7
2022-11-10T02:27:29.767Z,89.8
2022-11-10T02:28:29.776Z,89.8
2022-11-10T02:29:29.781Z,89.7
2022-11-10T02:30:29.793Z,89.7
2022-11-10T02:31:29.823Z,89.8
2022-11-10T02:32:29.805Z,89.8
2022-11-10T02:33:29.836Z,89.9
2022-11-10T02:34:29.839Z,89.9
2022-11-10T02:35:29.837Z,89.9
2022-11-10T02:36:29.844Z,89.9
2022-11-10T02:37:29.861Z,90.0
2022-11-10T02:38:29.867Z,90.1
2022-11-10T02:39:29.882Z,90.0
2022-11-10T02:40:30.001Z,89.8
2022-11-10T02:41:29.991Z,89.8
2022-11-10T02:42:29.932Z,89.8
2022-11-10T02:43:29.913Z,89.8
2022-11-10T02:44:29.924Z,89.9
2022-11-10T02:45:29.971Z,89.9
2022-11-10T02:46:29.953Z,90.0
2022-11-10T02:47:29.983Z,90.1
2022-11-10T02:48:29.937Z,90.0
2022-11-10T02:49:29.946Z,90.2
2022-11-10T02:50:30.078Z,90.2
2022-11-10T02:51:29.954Z,90.1
2022-11-10T02:52:29.966Z,90.3
2022-11-10T02:53:29.978Z,90.2
2022-11-10T02:54:29.966Z,90.3
2022-11-10T02:55:29.980Z,90.1
2022-11-10T02:56:29.990Z,90.0
2022-11-10T02:57:29.982Z,90.0
2022-11-10T02:58:30.012Z,90.0
2022-11-10T02:59:30.005Z,90.2
2022-11-10T03:00:30.061Z,90.1
2022-11-10T03:01:30.307Z,90.0
2022-11-10T03:02:32.614Z,90.3
2022-11-10T03:03:30.071Z,90.3
2022-11-10T03:04:30.122Z,90.3
2022-11-10T03:05:30.175Z,90.4
2022-11-10T03:06:30.343Z,90.4
2022-11-10T03:07:30.085Z,90.3
2022-11-10T03:08:30.087Z,90.3
2022-11-10T03:09:30.102Z,90.4
2022-11-10T03:10:30.157Z,90.4
2022-11-10T03:11:32.809Z,90.4
2022-11-10T03:12:30.144Z,90.4
2022-11-10T03:14:01.270Z,90.5
2022-11-10T03:14:30.110Z,90.5
2022-11-10T03:15:30.126Z,90.5
2022-11-10T03:16:30.135Z,90.5
2022-11-10T03:17:30.140Z,90.4
2022-11-10T03:18:30.120Z,90.5
2022-11-10T03:19:30.131Z,90.5
2022-11-10T03:20:30.135Z,90.6
2022-11-10T03:21:30.135Z,90.4
2022-11-10T03:22:30.169Z,90.6
2022-11-10T03:23:30.155Z,90.6
2022-11-10T03:24:30.154Z,90.6
2022-11-10T03:25:30.169Z,90.6
2022-11-10T03:26:30.178Z,90.5
2022-11-10T03:27:30.188Z,90.5
2022-11-10T03:28:30.174Z,90.6
2022-11-10T03:29:30.184Z,91.0
2022-11-10T03:30:30.210Z,90.9
2022-11-10T03:31:30.208Z,90.9
2022-11-10T03:32:30.200Z,90.9
2022-11-10T03:33:30.206Z,90.8
2022-11-10T03:34:32.225Z,91.0
2022-11-10T03:35:30.232Z,91.0
2022-11-10T03:36:30.245Z,90.9
2022-11-10T03:37:30.234Z,90.8
2022-11-10T03:38:30.267Z,90.8
2022-11-10T03:39:30.266Z,90.8
2022-11-10T03:40:30.271Z,90.8
2022-11-10T03:41:30.276Z,90.7
2022-11-10T03:42:30.282Z,90.8
2022-11-10T03:43:30.299Z,90.8
2022-11-10T03:44:30.298Z,90.8
2022-11-10T03:45:30.303Z,90.8
2022-11-10T03:46:30.302Z,90.9
2022-11-10T03:47:30.317Z,91.0
2022-11-10T03:48:30.328Z,91.1
2022-11-10T03:49:30.342Z,91.0
2022-11-10T03:50:30.346Z,91.0
2022-11-10T03:51:30.367Z,91.0
2022-11-10T03:52:30.369Z,91.1
2022-11-10T03:53:30.393Z,91.0
2022-11-10T03:54:30.368Z,91.0
2022-11-10T03:55:30.378Z,90.9
2022-11-10T03:56:30.388Z,90.8
2022-11-10T03:57:30.425Z,90.7
2022-11-10T03:58:30.401Z,90.7
2022-11-10T03:59:30.420Z,90.7
2022-11-10T04:00:30.423Z,90.8
2022-11-10T04:01:30.568Z,90.9
2022-11-10T04:02:30.408Z,90.9
2022-11-10T04:03:30.422Z,90.9
2022-11-10T04:04:30.427Z,91.2
2022-11-10T04:05:30.439Z,91.2
2022-11-10T04:06:30.790Z,91.2
2022-11-10T04:07:30.471Z,91.2
2022-11-10T04:08:30.452Z,91.0
2022-11-10T04:09:30.458Z,91.0
2022-11-10T04:10:30.467Z,91.0
2022-11-10T04:11:30.481Z,91.0
2022-11-10T04:12:30.488Z,91.0
2022-11-10T04:13:30.485Z,91.1
2022-11-10T04:14:30.486Z,91.0
2022-11-10T04:15:30.496Z,91.2
2022-11-10T04:16:30.500Z,91.3
2022-11-10T04:17:30.519Z,91.3
2022-11-10T04:18:30.518Z,91.4
2022-11-10T04:19:30.521Z,91.6
2022-11-10T04:20:30.546Z,91.8
2022-11-10T04:21:30.532Z,91.8
2022-11-10T04:22:30.553Z,91.9
2022-11-10T04:23:30.547Z,91.9
2022-11-10T04:24:30.552Z,91.9
2022-11-10T04:25:30.557Z,91.8
2022-11-10T04:26:30.578Z,91.7
2022-11-10T04:27:30.567Z,91.6
2022-11-10T04:28:30.591Z,91.6
2022-11-10T04:29:30.744Z,91.5
2022-11-10T04:30:30.587Z,91.5
2022-11-10T04:31:30.617Z,91.4
2022-11-10T04:32:30.597Z,91.5
2022-11-10T04:33:30.596Z,91.6
2022-11-10T04:34:30.614Z,91.7
2022-11-10T04:35:30.615Z,91.6
2022-11-10T04:36:30.618Z,91.7
2022-11-10T04:37:30.642Z,91.6
2022-11-10T04:38:30.634Z,91.7
2022-11-10T04:39:30.644Z,91.7
2022-11-10T04:40:30.647Z,91.8
2022-11-10T04:41:30.655Z,91.8
2022-11-10T04:42:30.673Z,91.8
2022-11-10T04:43:30.680Z,91.9
2022-11-10T04:44:30.688Z,91.8
2022-11-10T04:45:30.687Z,91.7
2022-11-10T04:46:30.701Z,91.7
2022-11-10T04:47:30.712Z,91.6
2022-11-10T04:48:30.721Z,91.5
2022-11-10T04:49:30.725Z,91.5
2022-11-10T04:50:30.732Z,91.5
2022-11-10T04:51:30.910Z,91.3
2022-11-10T04:52:30.753Z,91.4
2022-11-10T04:53:30.741Z,91.4
2022-11-10T04:54:30.752Z,91.3
2022-11-10T04:55:30.756Z,91.1
2022-11-10T04:56:30.775Z,91.2
2022-11-10T04:57:30.790Z,91.0
2022-11-10T04:58:30.777Z,90.9
2022-11-10T04:59:30.788Z,90.9
2022-11-10T05:00:31.112Z,90.6
2022-11-10T05:01:30.802Z,90.6
2022-11-10T05:02:40.023Z,90.4
2022-11-10T05:03:30.816Z,90.4
2022-11-10T05:04:30.819Z,90.1
2022-11-10T05:05:30.825Z,89.8
2022-11-10T05:06:30.967Z,89.8
2022-11-10T05:07:30.843Z,89.7
2022-11-10T05:08:30.846Z,89.8
2022-11-10T05:09:30.857Z,89.8
2022-11-10T05:10:30.864Z,89.9
2022-11-10T05:11:30.876Z,89.9
2022-11-10T05:12:30.889Z,89.9
2022-11-10T05:13:30.877Z,89.9
2022-11-10T05:14:30.888Z,90.0
2022-11-10T05:15:30.892Z,90.0
2022-11-10T05:16:30.901Z,90.1
2022-11-10T05:17:30.902Z,90.1
2022-11-10T05:18:30.907Z,90.2
2022-11-10T05:19:30.912Z,90.2
2022-11-10T05:20:30.925Z,90.2
2022-11-10T05:21:30.931Z,90.2
2022-11-10T05:22:30.930Z,90.2
2022-11-10T05:23:30.941Z,90.2
2022-11-10T05:24:30.952Z,90.2
2022-11-10T05:25:30.950Z,90.1
2022-11-10T05:26:30.955Z,90.4
2022-11-10T05:27:30.972Z,90.2
2022-11-10T05:28:30.982Z,90.2
2022-11-10T05:29:30.981Z,90.0
2022-11-10T05:30:30.995Z,89.8
2022-11-10T05:31:30.988Z,89.6
2022-11-10T05:32:30.992Z,89.6
2022-11-10T05:33:30.999Z,89.6
2022-11-10T05:34:31.008Z,89.1
2022-11-10T05:35:31.015Z,89.2
2022-11-10T05:36:31.021Z,89.0
2022-11-10T05:37:31.065Z,88.9
2022-11-10T05:38:31.036Z,89.0
2022-11-10T05:39:31.046Z,88.7
2022-11-10T05:40:31.059Z,88.5
2022-11-10T05:41:31.076Z,88.4
2022-11-10T05:42:31.071Z,88.4
2022-11-10T05:43:31.066Z,88.4
2022-11-10T05:44:31.082Z,88.2
2022-11-10T05:45:31.082Z,88.1
2022-11-10T05:46:31.097Z,88.2
2022-11-10T05:47:31.113Z,88.2
2022-11-10T05:48:31.108Z,88.1
2022-11-10T05:49:31.109Z,88.1
2022-11-10T05:50:31.119Z,88.2
2022-11-10T05:51:31.121Z,88.2
2022-11-10T05:52:31.132Z,88.2
2022-11-10T05:53:31.134Z,88.2
2022-11-10T05:54:31.151Z,88.4
2022-11-10T05:55:31.145Z,88.4
2022-11-10T05:56:31.163Z,88.4
2022-11-10T05:57:31.160Z,88.4
2022-11-10T05:58:31.178Z,88.3
2022-11-10T05:59:31.165Z,88.3
2022-11-10T06:00:31.181Z,88.3
2022-11-10T06:01:31.190Z,88.2
2022-11-10T06:02:31.199Z,88.1
2022-11-10T06:03:31.358Z,88.2
2022-11-10T06:04:31.203Z,88.2
2022-11-10T06:05:31.880Z,87.9
2022-11-10T06:06:31.341Z,87.8
2022-11-10T06:07:31.228Z,87.8
2022-11-10T06:08:31.230Z,87.8
2022-11-10T06:09:31.244Z,87.8
2022-11-10T06:10:31.250Z,87.8
2022-11-10T06:11:31.249Z,87.8
2022-11-10T06:12:31.260Z,87.8
2022-11-10T06:13:31.270Z,87.9
2022-11-10T06:14:31.270Z,87.9
2022-11-10T06:15:31.290Z,87.8
2022-11-10T06:16:31.320Z,87.7
2022-11-10T06:17:31.298Z,87.6
2022-11-10T06:18:31.301Z,87.6
2022-11-10T06:19:31.304Z,87.4
2022-11-10T06:20:31.317Z,87.5
2022-11-10T06:21:31.323Z,87.6
2022-11-10T06:22:31.332Z,87.6
2022-11-10T06:23:31.343Z,87.6
2022-11-10T06:24:31.352Z,87.7
2022-11-10T06:25:31.362Z,87.7
2022-11-10T06:26:31.390Z,87.7
2022-11-10T06:27:31.396Z,87.6
2022-11-10T06:28:31.431Z,87.5
2022-11-10T06:29:31.392Z,87.5
2022-11-10T06:30:31.391Z,87.5
2022-11-10T06:31:31.412Z,87.4
2022-11-10T06:32:31.421Z,87.2
2022-11-10T06:33:31.421Z,87.1
2022-11-10T06:34:31.426Z,87.1
2022-11-10T06:35:31.450Z,87.1
2022-11-10T06:36:31.448Z,87.1
2022-11-10T06:37:31.458Z,87.0
2022-11-10T06:38:31.466Z,87.0
2022-11-10T06:39:31.484Z,87.0
2022-11-10T06:40:31.486Z,87.1
2022-11-10T06:41:31.490Z,87.1
2022-11-10T06:42:31.497Z,87.1
2022-11-10T06:43:31.514Z,87.2
2022-11-10T06:44:31.516Z,87.2
2022-11-10T06:45:31.532Z,87.1
2022-11-10T06:46:31.527Z,87.2
2022-11-10T06:47:31.550Z,87.1
2022-11-10T06:48:31.549Z,87.0
2022-11-10T06:49:31.564Z,86.8
2022-11-10T06:50:31.569Z,86.6
2022-11-10T06:51:31.577Z,86.6
2022-11-10T06:52:31.599Z,86.5
2022-11-10T06:53:32.879Z,86.5
2022-11-10T06:54:31.596Z,86.4
2022-11-10T06:55:31.612Z,86.4
2022-11-10T06:56:31.616Z,86.3
2022-11-10T06:57:31.625Z,86.4
2022-11-10T06:58:31.642Z,86.4
2022-11-10T06:59:31.636Z,86.4
2022-11-10T07:00:31.657Z,86.4
2022-11-10T07:01:31.814Z,86.4
2022-11-10T07:02:31.655Z,86.4
2022-11-10T07:03:31.673Z,86.4
2022-11-10T07:04:31.668Z,86.5
2022-11-10T07:05:31.676Z,86.6
2022-11-10T07:06:31.907Z,86.6
2022-11-10T07:07:31.687Z,86.7
2022-11-10T07:08:31.699Z,86.7
2022-11-10T07:09:31.704Z,86.8
2022-11-10T07:10:31.707Z,87.0
2022-11-10T07:11:31.717Z,87.0
2022-11-10T07:12:31.724Z,87.1
2022-11-10T07:13:31.727Z,87.2
2022-11-10T07:14:31.745Z,87.3
2022-11-10T07:15:31.773Z,87.4
2022-11-10T07:16:31.760Z,87.4
2022-11-10T07:17:31.771Z,87.5
2022-11-10T07:18:31.776Z,87.6
2022-11-10T07:19:31.780Z,87.6
2022-11-10T07:20:31.792Z,87.6
2022-11-10T07:21:31.794Z,87.6
2022-11-10T07:22:32.013Z,87.6
2022-11-10T07:23:31.809Z,87.6
2022-11-10T07:24:31.836Z,87.5
2022-11-10T07:25:31.825Z,87.5
2022-11-10T07:26:31.834Z,87.6
2022-11-10T07:27:31.833Z,87.6
2022-11-10T07:28:31.840Z,87.5
2022-11-10T07:29:31.855Z,87.6
2022-11-10T07:30:31.871Z,87.5
2022-11-10T07:31:31.860Z,87.5
2022-11-10T07:32:31.876Z,87.6
2022-11-10T07:33:31.874Z,87.5
2022-11-10T07:34:31.902Z,87.5
2022-11-10T07:35:31.900Z,87.4
2022-11-10T07:36:31.895Z,87.4
2022-11-10T07:37:31.912Z,87.4
2022-11-10T07:38:31.914Z,87.4
2022-11-10T07:39:31.924Z,87.2
2022-11-10T07:40:31.950Z,87.0
2022-11-10T07:41:31.937Z,86.7
2022-11-10T07:42:31.940Z,86.5
2022-11-10T07:43:31.950Z,86.4
2022-11-10T07:44:31.957Z,86.3
2022-11-10T07:45:31.967Z,86.1
2022-11-10T07:46:31.972Z,85.6
2022-11-10T07:47:31.984Z,85.5
2022-11-10T07:48:31.990Z,85.2
2022-11-10T07:49:31.996Z,85.0
2022-11-10T07:50:32.019Z,85.0
2022-11-10T07:51:32.009Z,84.9
2022-11-10T07:52:32.022Z,84.6
2022-11-10T07:53:32.017Z,84.4
2022-11-10T07:54:32.033Z,84.3
2022-11-10T07:55:32.061Z,84.0
2022-11-10T07:56:32.048Z,84.1
2022-11-10T07:57:32.051Z,83.6
2022-11-10T07:58:32.110Z,83.4
2022-11-10T07:59:32.072Z,83.3
2022-11-10T08:00:32.070Z,83.1
2022-11-10T08:01:32.291Z,82.9
2022-11-10T08:02:32.102Z,82.8
2022-11-10T08:03:32.093Z,83.0
2022-11-10T08:04:32.093Z,83.0
2022-11-10T08:05:32.107Z,82.9
2022-11-10T08:06:37.003Z,83.0
2022-11-10T08:07:32.566Z,82.9
2022-11-10T08:08:32.119Z,82.6
2022-11-10T08:09:32.131Z,82.5
2022-11-10T08:10:32.137Z,82.1
2022-11-10T08:11:32.164Z,82.0
2022-11-10T08:12:34.028Z,81.8
2022-11-10T08:13:32.152Z,81.7
2022-11-10T08:14:32.158Z,81.6
2022-11-10T08:15:32.188Z,81.6
2022-11-10T08:16:32.215Z,81.5
2022-11-10T08:17:32.183Z,81.6
2022-11-10T08:18:36.008Z,81.6
2022-11-10T08:19:32.217Z,81.4
2022-11-10T08:20:32.216Z,81.0
2022-11-10T08:21:32.206Z,80.9
2022-11-10T08:22:32.222Z,80.4
2022-11-10T08:23:32.224Z,80.4
2022-11-10T08:24:32.228Z,80.2
2022-11-10T08:25:35.961Z,80.1
2022-11-10T08:26:32.244Z,79.8
2022-11-10T08:27:32.260Z,80.0
2022-11-10T08:28:32.270Z,79.8
2022-11-10T08:29:32.268Z,79.7
2022-11-10T08:30:32.279Z,79.5
2022-11-10T08:31:32.280Z,79.3
2022-11-10T08:32:32.285Z,79.4
2022-11-10T08:33:32.302Z,79.3
2022-11-10T08:34:32.296Z,79.2
2022-11-10T08:35:32.301Z,79.1
2022-11-10T08:36:32.316Z,79.1
2022-11-10T08:37:32.337Z,78.5
2022-11-10T08:38:32.341Z,78.6
2022-11-10T08:39:39.980Z,78.9
2022-11-10T08:40:32.342Z,78.9
2022-11-10T08:41:32.347Z,78.7
2022-11-10T08:42:32.360Z,78.5
2022-11-10T08:43:32.367Z,78.4
2022-11-10T08:44:32.377Z,78.1
2022-11-10T08:45:32.418Z,78.3
2022-11-10T08:46:32.401Z,78.2
2022-11-10T08:47:32.400Z,78.3
2022-11-10T08:48:32.409Z,78.1
2022-11-10T08:49:32.422Z,78.4
2022-11-10T08:50:32.448Z,78.4
2022-11-10T08:51:39.512Z,78.6
2022-11-10T08:52:32.445Z,78.4
2022-11-10T08:53:32.448Z,78.2
2022-11-10T08:54:32.449Z,77.9
2022-11-10T08:55:32.470Z,77.9
2022-11-10T08:56:32.472Z,77.9
2022-11-10T08:57:32.472Z,77.7
2022-11-10T08:58:32.484Z,77.7
2022-11-10T08:59:32.486Z,77.8
2022-11-10T09:00:32.506Z,77.5
2022-11-10T09:01:32.518Z,77.8
2022-11-10T09:02:32.509Z,77.6
2022-11-10T09:03:32.517Z,77.3
2022-11-10T09:04:32.731Z,77.4
2022-11-10T09:05:32.534Z,77.4
2022-11-10T09:06:32.779Z,77.6
2022-11-10T09:07:32.548Z,77.4
2022-11-10T09:08:32.572Z,77.2
2022-11-10T09:09:32.626Z,77.0
2022-11-10T09:10:32.626Z,76.9
2022-11-10T09:11:32.621Z,77.0
2022-11-10T09:12:32.590Z,76.9
2022-11-10T09:13:33.749Z,76.9
2022-11-10T09:14:32.611Z,76.9
2022-11-10T09:15:32.613Z,76.6
2022-11-10T09:16:32.664Z,76.4
2022-11-10T09:17:32.637Z,76.3
2022-11-10T09:18:32.644Z,76.1
2022-11-10T09:19:32.805Z,76.0
2022-11-10T09:20:32.644Z,76.1
2022-11-10T09:21:32.652Z,76.3
2022-11-10T09:22:32.666Z,76.3
2022-11-10T09:23:32.677Z,75.9
2022-11-10T09:24:32.681Z,75.8
2022-11-10T09:25:32.704Z,75.9
2022-11-10T09:26:32.701Z,75.9
2022-11-10T09:27:32.707Z,75.6
2022-11-10T09:28:32.730Z,75.5
2022-11-10T09:29:32.728Z,75.2
2022-11-10T09:30:32.769Z,75.8
2022-11-10T09:31:32.754Z,75.6
2022-11-10T09:32:32.755Z,75.1
2022-11-10T09:33:32.766Z,75.2
2022-11-10T09:34:32.784Z,75.1
2022-11-10T09:35:32.779Z,75.1
2022-11-10T09:36:32.793Z,74.8
2022-11-10T09:37:32.796Z,74.6
2022-11-10T09:38:32.823Z,74.6
2022-11-10T09:39:32.814Z,74.6
2022-11-10T09:40:32.819Z,74.5
2022-11-10T09:41:32.850Z,74.1
2022-11-10T09:42:32.858Z,73.8
2022-11-10T09:43:32.860Z,73.8
2022-11-10T09:44:32.892Z,74.0
2022-11-10T09:45:39.734Z,74.3
2022-11-10T09:46:32.904Z,74.4
2022-11-10T09:47:57.674Z,74.5
2022-11-10T09:48:32.900Z,74.7
2022-11-10T09:49:32.902Z,74.7
2022-11-10T09:50:32.908Z,74.7
2022-11-10T09:51:32.916Z,74.5
2022-11-10T09:52:32.943Z,74.7
2022-11-10T09:53:32.939Z,74.6
2022-11-10T09:54:32.953Z,74.2
2022-11-10T09:55:32.955Z,74.0
2022-11-10T09:56:32.969Z,73.8
2022-11-10T09:57:33.040Z,73.3
2022-11-10T09:58:32.978Z,73.5
2022-11-10T09:59:32.996Z,73.3
2022-11-10T10:00:32.989Z,72.9
2022-11-10T10:01:33.183Z,73.2
2022-11-10T10:02:33.012Z,73.2
2022-11-10T10:03:33.013Z,73.1
2022-11-10T10:04:33.032Z,72.8
2022-11-10T10:05:33.028Z,72.8
2022-11-10T10:07:09.901Z,72.8
2022-11-10T10:07:33.197Z,72.9
2022-11-10T10:08:33.051Z,72.9
2022-11-10T10:09:33.061Z,72.8
2022-11-10T10:10:33.056Z,72.7
2022-11-10T10:11:33.065Z,72.6
2022-11-10T10:12:33.096Z,72.5
2022-11-10T10:13:33.115Z,72.9
2022-11-10T10:14:33.121Z,72.7
2022-11-10T10:15:33.091Z,73.1
2022-11-10T10:16:33.125Z,73.1
2022-11-10T10:17:41.621Z,73.1
2022-11-10T10:18:33.118Z,73.5
2022-11-10T10:19:33.119Z,73.4
2022-11-10T10:20:33.125Z,73.2
2022-11-10T10:21:33.135Z,73.4
2022-11-10T10:22:33.145Z,73.4
2022-11-10T10:24:33.157Z,73.5
2022-11-10T10:25:33.158Z,73.2
2022-11-10T10:26:33.168Z,73.2
2022-11-10T10:27:33.177Z,73.4
2022-11-10T10:28:33.186Z,73.2
2022-11-10T10:29:38.040Z,72.8
2022-11-10T10:30:33.174Z,72.9
2022-11-10T10:31:33.195Z,72.4
2022-11-10T10:32:33.193Z,72.7
2022-11-10T10:33:33.200Z,72.4
2022-11-10T10:34:33.230Z,72.4
2022-11-10T10:35:42.158Z,72.3
2022-11-10T10:36:33.245Z,72.3
2022-11-10T10:37:41.034Z,72.3
2022-11-10T10:38:33.244Z,72.0
2022-11-10T10:39:33.262Z,72.0
2022-11-10T10:40:33.292Z,71.8
2022-11-10T10:41:33.299Z,71.6
2022-11-10T10:42:33.280Z,71.7
2022-11-10T10:43:33.285Z,71.4
2022-11-10T10:44:33.302Z,71.3
2022-11-10T10:45:33.548Z,71.1
2022-11-10T10:46:36.151Z,70.8
2022-11-10T10:47:33.320Z,70.8
2022-11-10T10:48:33.341Z,70.6
2022-11-10T10:49:33.352Z,70.6
2022-11-10T10:50:33.348Z,70.6
2022-11-10T10:51:33.367Z,70.4
2022-11-10T10:52:33.360Z,69.8
2022-11-10T10:53:33.369Z,70.0
2022-11-10T10:54:33.391Z,69.9
2022-11-10T10:55:33.375Z,69.8
2022-11-10T10:56:33.396Z,69.8
2022-11-10T10:57:33.387Z,70.0
2022-11-10T10:58:33.411Z,70.2
2022-11-10T10:59:33.405Z,70.2
2022-11-10T11:00:33.410Z,69.9
2022-11-10T11:01:33.689Z,70.1
2022-11-10T11:02:33.434Z,70.6
2022-11-10T11:03:33.443Z,70.6
2022-11-10T11:04:33.454Z,70.2
2022-11-10T11:05:33.468Z,70.4
2022-11-10T11:06:33.938Z,70.8
2022-11-10T11:07:33.489Z,70.7
2022-11-10T11:08:33.503Z,70.4
2022-11-10T11:09:33.499Z,70.5
2022-11-10T11:10:33.504Z,70.6
2022-11-10T11:11:33.513Z,71.0
2022-11-10T11:12:33.521Z,71.2
2022-11-10T11:13:33.530Z,71.1
2022-11-10T11:14:33.568Z,71.1
2022-11-10T11:15:33.541Z,71.1
2022-11-10T11:16:33.548Z,71.0
2022-11-10T11:17:33.706Z,70.5
2022-11-10T11:18:33.556Z,70.6
2022-11-10T11:19:33.574Z,69.7
2022-11-10T11:20:33.577Z,70.0
2022-11-10T11:21:33.611Z,69.7
2022-11-10T11:22:33.596Z,69.7
2022-11-10T11:23:33.596Z,69.6
2022-11-10T11:24:33.596Z,69.4
2022-11-10T11:25:33.624Z,69.1
2022-11-10T11:26:33.640Z,69.0
2022-11-10T11:27:33.640Z,69.1
2022-11-10T11:28:33.631Z,68.9
2022-11-10T11:29:33.633Z,69.0
2022-11-10T11:30:33.648Z,69.3
2022-11-10T11:31:43.472Z,69.1
2022-11-10T11:32:33.666Z,69.3
2022-11-10T11:33:33.665Z,69.3
2022-11-10T11:34:33.679Z,69.5
2022-11-10T11:35:33.680Z,69.7
2022-11-10T11:36:33.733Z,69.9
2022-11-10T11:37:33.715Z,69.7
2022-11-10T11:38:33.707Z,70.2
2022-11-10T11:39:33.720Z,70.4
2022-11-10T11:40:33.718Z,70.4
2022-11-10T11:41:33.726Z,70.6
2022-11-10T11:42:33.733Z,70.4
2022-11-10T11:43:33.742Z,70.4
2022-11-10T11:44:33.751Z,70.4
2022-11-10T11:45:33.764Z,70.5
2022-11-10T11:46:33.775Z,70.1
2022-11-10T11:47:33.772Z,70.1
2022-11-10T11:48:33.785Z,69.8
2022-11-10T11:49:33.788Z,69.5
2022-11-10T11:50:33.812Z,69.6
2022-11-10T11:51:33.806Z,69.6
2022-11-10T11:52:33.809Z,69.5
2022-11-10T11:53:33.820Z,69.5
2022-11-10T11:54:33.834Z,69.0
2022-11-10T11:55:33.962Z,69.0
2022-11-10T11:56:33.839Z,68.7
2022-11-10T11:57:40.621Z,68.4
2022-11-10T11:58:33.855Z,68.5
2022-11-10T11:59:33.863Z,68.4
2022-11-10T12:00:33.873Z,68.0
2022-11-10T12:01:33.884Z,68.1
2022-11-10T12:02:34.042Z,68.1
2022-11-10T12:03:33.891Z,67.9
2022-11-10T12:04:33.907Z,67.8
2022-11-10T12:05:33.913Z,68.2
2022-11-10T12:06:34.152Z,68.1
2022-11-10T12:07:33.933Z,67.9
2022-11-10T12:08:33.951Z,67.8
2022-11-10T12:09:33.956Z,67.9
2022-11-10T12:10:33.965Z,67.8
2022-11-10T12:11:33.972Z,68.1
2022-11-10T12:12:33.989Z,68.1
2022-11-10T12:13:33.991Z,67.9
2022-11-10T12:14:33.996Z,68.2
2022-11-10T12:15:33.994Z,68.0
2022-11-10T12:16:34.013Z,68.1
2022-11-10T12:17:34.012Z,68.0
2022-11-10T12:18:34.022Z,68.1
2022-11-10T12:19:34.038Z,68.1
2022-11-10T12:20:34.042Z,67.9
2022-11-10T12:21:34.045Z,67.7
2022-11-10T12:22:34.062Z,67.7
2022-11-10T12:23:34.072Z,67.9
2022-11-10T12:24:34.078Z,68.0
2022-11-10T12:25:34.094Z,68.2
2022-11-10T12:26:34.089Z,68.3
2022-11-10T12:27:34.108Z,68.3
2022-11-10T12:28:34.104Z,68.1
2022-11-10T12:29:34.114Z,68.2
2022-11-10T12:30:34.119Z,68.0
2022-11-10T12:31:34.130Z,67.9
2022-11-10T12:32:34.147Z,67.9
2022-11-10T12:33:34.148Z,68.2
2022-11-10T12:34:34.163Z,68.4
2022-11-10T12:35:34.163Z,68.4
2022-11-10T12:36:34.181Z,68.1
2022-11-10T12:37:34.185Z,68.0
2022-11-10T12:38:34.196Z,68.2
2022-11-10T12:39:34.201Z,68.5
2022-11-10T12:40:42.278Z,68.6
2022-11-10T12:41:34.207Z,68.9
2022-11-10T12:42:34.227Z,68.8
2022-11-10T12:43:34.220Z,68.6
2022-11-10T12:44:34.237Z,68.6
2022-11-10T12:45:34.237Z,68.7
2022-11-10T12:46:34.255Z,69.0
2022-11-10T12:47:34.244Z,68.7
2022-11-10T12:48:34.272Z,68.5
2022-11-10T12:49:34.271Z,68.8
2022-11-10T12:50:34.277Z,68.6
2022-11-10T12:51:34.277Z,68.3
2022-11-10T12:52:34.288Z,68.7
2022-11-10T12:53:34.308Z,68.7
2022-11-10T12:54:34.320Z,68.7
2022-11-10T12:55:34.328Z,68.8
2022-11-10T12:56:34.431Z,68.7
2022-11-10T12:57:34.346Z,68.8
2022-11-10T12:58:34.348Z,69.4
2022-11-10T12:59:34.362Z,69.2
2022-11-10T13:00:34.391Z,69.4
2022-11-10T13:01:34.690Z,69.5
2022-11-10T13:02:34.418Z,69.4
2022-11-10T13:03:34.399Z,69.5
2022-11-10T13:04:34.404Z,69.7
2022-11-10T13:05:34.441Z,69.8
2022-11-10T13:06:34.552Z,69.8
2022-11-10T13:07:34.442Z,69.8
2022-11-10T13:08:34.440Z,70.0
2022-11-10T13:09:34.452Z,70.3
2022-11-10T13:10:34.447Z,70.3
2022-11-10T13:11:34.626Z,70.5
2022-11-10T13:12:34.467Z,70.1
2022-11-10T13:13:34.470Z,70.5
2022-11-10T13:14:34.484Z,70.6
2022-11-10T13:15:34.487Z,70.7
2022-11-10T13:16:34.509Z,70.8
2022-11-10T13:17:34.513Z,71.0
2022-11-10T13:18:34.531Z,71.2
2022-11-10T13:19:34.533Z,71.3
2022-11-10T13:20:34.600Z,71.3
2022-11-10T13:21:34.541Z,71.3
2022-11-10T13:22:34.565Z,71.4
2022-11-10T13:23:34.558Z,71.6
2022-11-10T13:24:34.860Z,71.7
2022-11-10T13:25:34.584Z,71.9
2022-11-10T13:26:34.577Z,71.9
2022-11-10T13:27:34.583Z,71.8
2022-11-10T13:28:34.602Z,71.7
2022-11-10T13:29:34.607Z,71.7
2022-11-10T13:30:34.612Z,71.8
2022-11-10T13:31:34.632Z,72.0
2022-11-10T13:32:34.634Z,72.4
2022-11-10T13:33:34.654Z,71.9
2022-11-10T13:34:34.649Z,71.8
2022-11-10T13:35:34.665Z,71.9
2022-11-10T13:36:34.785Z,72.1